createdAt,value
2023-04-16T00:00:14.180Z,996.12
2023-04-16T00:01:14.119Z,996.12
2023-04-16T00:02:14.263Z,996.12
2023-04-16T00:03:14.281Z,996.12
2023-04-16T00:04:14.199Z,996.12
2023-04-16T00:05:14.168Z,996.12
2023-04-16T00:06:14.111Z,996.11
2023-04-16T00:07:14.096Z,996.12
2023-04-16T00:08:14.097Z,996.11
2023-04-16T00:09:14.170Z,996.15
2023-04-16T00:10:14.169Z,996.16
2023-04-16T00:11:14.292Z,996.19
2023-04-16T00:12:14.095Z,996.20
2023-04-16T00:13:14.068Z,996.21
2023-04-16T00:14:14.054Z,996.21
2023-04-16T00:15:14.047Z,996.28
2023-04-16T00:16:14.085Z,996.22
2023-04-16T00:17:14.076Z,996.25
2023-04-16T00:18:13.991Z,996.24
2023-04-16T00:19:14.055Z,996.24
2023-04-16T00:20:13.992Z,996.24
2023-04-16T00:21:14.027Z,996.23
2023-04-16T00:22:13.968Z,996.24
2023-04-16T00:23:14.036Z,996.22
2023-04-16T00:24:14.073Z,996.24
2023-04-16T00:25:13.977Z,996.23
2023-04-16T00:26:13.952Z,996.19
2023-04-16T00:27:14.051Z,996.25
2023-04-16T00:28:13.953Z,996.24
2023-04-16T00:29:14.005Z,996.24
2023-04-16T00:30:13.956Z,996.26
2023-04-16T00:31:13.983Z,996.25
2023-04-16T00:32:13.924Z,996.26
2023-04-16T00:33:13.907Z,996.30
2023-04-16T00:34:13.893Z,996.30
2023-04-16T00:35:13.952Z,996.32
2023-04-16T00:36:13.888Z,996.35
2023-04-16T00:37:13.911Z,996.37
2023-04-16T00:38:13.862Z,996.37
2023-04-16T00:39:13.893Z,996.34
2023-04-16T00:40:13.843Z,996.36
2023-04-16T00:41:13.901Z,996.34
2023-04-16T00:42:14.018Z,996.36
2023-04-16T00:43:13.911Z,996.38
2023-04-16T00:44:13.851Z,996.37
2023-04-16T00:45:13.792Z,996.37
2023-04-16T00:46:13.844Z,996.39
2023-04-16T00:47:13.924Z,996.39
2023-04-16T00:48:13.786Z,996.36
2023-04-16T00:49:13.806Z,996.38
2023-04-16T00:50:13.791Z,996.36
2023-04-16T00:51:13.772Z,996.37
2023-04-16T00:52:13.755Z,996.38
2023-04-16T00:53:13.784Z,996.37
2023-04-16T00:54:13.751Z,996.37
2023-04-16T00:55:13.784Z,996.37
2023-04-16T00:56:13.729Z,996.37
2023-04-16T00:57:13.703Z,996.37
2023-04-16T00:58:13.799Z,996.36
2023-04-16T00:59:13.784Z,996.38
2023-04-16T01:00:13.710Z,996.33
2023-04-16T01:01:13.896Z,996.38
2023-04-16T01:02:13.874Z,996.36
2023-04-16T01:03:13.813Z,996.37
2023-04-16T01:04:13.758Z,996.36
2023-04-16T01:05:14.025Z,996.34
2023-04-16T01:06:13.677Z,996.35
2023-04-16T01:07:13.661Z,996.30
2023-04-16T01:08:13.672Z,996.31
2023-04-16T01:09:13.690Z,996.29
2023-04-16T01:10:13.668Z,996.26
2023-04-16T01:11:53.866Z,996.22
2023-04-16T01:12:14.654Z,996.24
2023-04-16T01:13:13.625Z,996.25
2023-04-16T01:14:13.753Z,996.23
2023-04-16T01:15:13.623Z,996.22
2023-04-16T01:16:13.637Z,996.24
2023-04-16T01:17:13.754Z,996.22
2023-04-16T01:18:13.613Z,996.28
2023-04-16T01:19:13.586Z,996.30
2023-04-16T01:20:13.619Z,996.31
2023-04-16T01:21:13.567Z,996.30
2023-04-16T01:22:13.587Z,996.34
2023-04-16T01:23:13.590Z,996.37
2023-04-16T01:24:13.571Z,996.39
2023-04-16T01:25:13.593Z,996.37
2023-04-16T01:26:13.529Z,996.40
2023-04-16T01:27:13.538Z,996.46
2023-04-16T01:28:13.523Z,996.47
2023-04-16T01:29:13.551Z,996.50
2023-04-16T01:30:13.508Z,996.44
2023-04-16T01:31:13.533Z,996.45
2023-04-16T01:32:13.500Z,996.49
2023-04-16T01:33:13.505Z,996.46
2023-04-16T01:34:13.464Z,996.46
2023-04-16T01:35:13.514Z,996.46
2023-04-16T01:36:13.436Z,996.46
2023-04-16T01:37:13.458Z,996.44
2023-04-16T01:38:13.444Z,996.46
2023-04-16T01:39:13.440Z,996.50
2023-04-16T01:40:13.435Z,996.49
2023-04-16T01:41:13.548Z,996.50
2023-04-16T01:42:13.442Z,996.49
2023-04-16T01:43:13.431Z,996.50
2023-04-16T01:44:13.410Z,996.48
2023-04-16T01:45:13.405Z,996.50
2023-04-16T01:46:13.423Z,996.46
2023-04-16T01:47:13.421Z,996.49
2023-04-16T01:48:13.389Z,996.47
2023-04-16T01:49:13.371Z,996.44
2023-04-16T01:50:13.327Z,996.45
2023-04-16T01:51:13.376Z,996.47
2023-04-16T01:52:13.346Z,996.49
2023-04-16T01:53:13.370Z,996.53
2023-04-16T01:54:13.339Z,996.52
2023-04-16T01:55:13.288Z,996.55
2023-04-16T01:56:13.308Z,996.55
2023-04-16T01:57:13.317Z,996.55
2023-04-16T01:58:13.287Z,996.53
2023-04-16T01:59:13.353Z,996.57
2023-04-16T02:00:13.285Z,996.54
2023-04-16T02:01:13.324Z,996.54
2023-04-16T02:02:13.342Z,996.55
2023-04-16T02:03:13.444Z,996.54
2023-04-16T02:05:02.762Z,996.55
2023-04-16T02:05:14.714Z,996.54
2023-04-16T02:06:13.258Z,996.55
2023-04-16T02:07:53.903Z,996.53
2023-04-16T02:08:14.216Z,996.57
2023-04-16T02:09:13.235Z,996.56
2023-04-16T02:10:13.210Z,996.52
2023-04-16T02:11:13.249Z,996.57
2023-04-16T02:12:13.187Z,996.56
2023-04-16T02:13:13.193Z,996.55
2023-04-16T02:14:13.173Z,996.57
2023-04-16T02:15:13.188Z,996.55
2023-04-16T02:16:13.268Z,996.58
2023-04-16T02:17:13.226Z,996.59
2023-04-16T02:18:13.196Z,996.62
2023-04-16T02:19:13.151Z,996.60
2023-04-16T02:20:13.152Z,996.60
2023-04-16T02:21:13.125Z,996.62
2023-04-16T02:22:13.126Z,996.62
2023-04-16T02:23:13.148Z,996.64
2023-04-16T02:24:13.112Z,996.60
2023-04-16T02:25:13.127Z,996.60
2023-04-16T02:26:13.078Z,996.58
2023-04-16T02:27:13.098Z,996.56
2023-04-16T02:28:13.090Z,996.58
2023-04-16T02:29:13.104Z,996.55
2023-04-16T02:30:13.064Z,996.52
2023-04-16T02:31:13.063Z,996.52
2023-04-16T02:32:13.244Z,996.51
2023-04-16T02:33:13.040Z,996.53
2023-04-16T02:34:13.047Z,996.52
2023-04-16T02:35:13.082Z,996.52
2023-04-16T02:36:13.032Z,996.54
2023-04-16T02:37:13.022Z,996.56
2023-04-16T02:38:13.011Z,996.55
2023-04-16T02:39:13.024Z,996.57
2023-04-16T02:40:13.015Z,996.52
2023-04-16T02:41:13.045Z,996.59
2023-04-16T02:42:12.959Z,996.57
2023-04-16T02:43:12.980Z,996.58
2023-04-16T02:44:12.963Z,996.60
2023-04-16T02:45:12.964Z,996.59
2023-04-16T02:46:12.995Z,996.60
2023-04-16T02:47:12.991Z,996.60
2023-04-16T02:48:12.958Z,996.62
2023-04-16T02:49:12.927Z,996.61
2023-04-16T02:50:12.976Z,996.63
2023-04-16T02:51:12.899Z,996.65
2023-04-16T02:52:15.079Z,996.66
2023-04-16T02:53:12.947Z,996.66
2023-04-16T02:54:12.879Z,996.65
2023-04-16T02:55:12.887Z,996.65
2023-04-16T02:56:12.886Z,996.62
2023-04-16T02:57:12.878Z,996.60
2023-04-16T02:58:12.883Z,996.62
2023-04-16T02:59:12.883Z,996.61
2023-04-16T03:00:12.854Z,996.61
2023-04-16T03:01:12.868Z,996.62
2023-04-16T03:02:12.863Z,996.58
2023-04-16T03:03:12.924Z,996.58
2023-04-16T03:04:12.914Z,996.60
2023-04-16T03:05:12.975Z,996.55
2023-04-16T03:06:12.815Z,996.54
2023-04-16T03:07:12.813Z,996.54
2023-04-16T03:08:12.785Z,996.52
2023-04-16T03:09:12.809Z,996.56
2023-04-16T03:10:12.902Z,996.57
2023-04-16T03:11:13.083Z,996.55
2023-04-16T03:12:12.734Z,996.54
2023-04-16T03:13:12.745Z,996.56
2023-04-16T03:14:12.742Z,996.58
2023-04-16T03:15:12.739Z,996.58
2023-04-16T03:16:12.766Z,996.60
2023-04-16T03:17:12.774Z,996.60
2023-04-16T03:18:12.724Z,996.66
2023-04-16T03:19:12.707Z,996.68
2023-04-16T03:20:12.707Z,996.69
2023-04-16T03:21:12.719Z,996.67
2023-04-16T03:22:12.701Z,996.69
2023-04-16T03:23:12.766Z,996.66
2023-04-16T03:24:12.665Z,996.69
2023-04-16T03:25:12.707Z,996.65
2023-04-16T03:26:12.663Z,996.65
2023-04-16T03:27:12.643Z,996.68
2023-04-16T03:28:12.651Z,996.70
2023-04-16T03:29:12.690Z,996.72
2023-04-16T03:30:12.632Z,996.70
2023-04-16T03:31:12.702Z,996.71
2023-04-16T03:32:12.627Z,996.71
2023-04-16T03:33:12.612Z,996.75
2023-04-16T03:34:12.626Z,996.75
2023-04-16T03:35:12.655Z,996.75
2023-04-16T03:36:12.602Z,996.73
2023-04-16T03:37:12.578Z,996.71
2023-04-16T03:38:12.591Z,996.73
2023-04-16T03:39:12.586Z,996.73
2023-04-16T03:40:12.569Z,996.74
2023-04-16T03:41:12.610Z,996.75
2023-04-16T03:42:12.573Z,996.74
2023-04-16T03:43:12.545Z,996.77
2023-04-16T03:44:12.534Z,996.78
2023-04-16T03:45:12.511Z,996.77
2023-04-16T03:46:12.548Z,996.79
2023-04-16T03:47:12.549Z,996.78
2023-04-16T03:48:12.520Z,996.78
2023-04-16T03:49:12.505Z,996.81
2023-04-16T03:50:12.461Z,996.79
2023-04-16T03:51:12.485Z,996.74
2023-04-16T03:52:12.446Z,996.81
2023-04-16T03:53:12.502Z,996.79
2023-04-16T03:54:12.450Z,996.81
2023-04-16T03:55:12.465Z,996.77
2023-04-16T03:56:12.438Z,996.77
2023-04-16T03:57:12.446Z,996.81
2023-04-16T03:58:12.447Z,996.84
2023-04-16T03:59:12.493Z,996.80
2023-04-16T04:00:12.390Z,996.82
2023-04-16T04:01:12.440Z,996.82
2023-04-16T04:02:12.534Z,996.81
2023-04-16T04:03:12.611Z,996.81
2023-04-16T04:04:12.483Z,996.83
2023-04-16T04:05:12.408Z,996.81
2023-04-16T04:06:12.388Z,996.84
2023-04-16T04:07:12.349Z,996.84
2023-04-16T04:08:12.350Z,996.82
2023-04-16T04:09:12.355Z,996.85
2023-04-16T04:10:12.345Z,996.88
2023-04-16T04:11:12.554Z,996.88
2023-04-16T04:12:12.319Z,996.86
2023-04-16T04:13:12.329Z,996.89
2023-04-16T04:14:12.314Z,996.87
2023-04-16T04:15:12.302Z,996.87
2023-04-16T04:16:12.317Z,996.89
2023-04-16T04:17:12.321Z,996.89
2023-04-16T04:18:12.286Z,996.86
2023-04-16T04:19:12.289Z,996.91
2023-04-16T04:20:12.273Z,996.92
2023-04-16T04:21:12.346Z,996.96
2023-04-16T04:22:33.303Z,996.92
2023-04-16T04:23:12.252Z,996.98
2023-04-16T04:24:12.267Z,996.97
2023-04-16T04:25:12.225Z,996.98
2023-04-16T04:26:12.263Z,996.96
2023-04-16T04:27:12.231Z,996.99
2023-04-16T04:28:12.268Z,996.99
2023-04-16T04:29:12.328Z,996.99
2023-04-16T04:30:12.195Z,997.00
2023-04-16T04:31:12.232Z,997.00
2023-04-16T04:32:12.209Z,997.00
2023-04-16T04:33:12.192Z,997.01
2023-04-16T04:34:12.187Z,997.02
2023-04-16T04:35:12.154Z,997.01
2023-04-16T04:36:12.173Z,997.00
2023-04-16T04:37:33.154Z,997.01
2023-04-16T04:38:13.640Z,997.00
2023-04-16T04:39:12.103Z,997.00
2023-04-16T04:40:12.202Z,997.03
2023-04-16T04:41:12.130Z,997.03
2023-04-16T04:42:12.111Z,997.06
2023-04-16T04:43:12.109Z,997.07
2023-04-16T04:44:12.088Z,997.10
2023-04-16T04:45:12.121Z,997.11
2023-04-16T04:46:12.178Z,997.10
2023-04-16T04:47:12.060Z,997.12
2023-04-16T04:48:12.081Z,997.15
2023-04-16T04:49:12.174Z,997.16
2023-04-16T04:50:12.072Z,997.13
2023-04-16T04:51:12.042Z,997.16
2023-04-16T04:52:12.096Z,997.16
2023-04-16T04:53:12.066Z,997.19
2023-04-16T04:54:12.021Z,997.16
2023-04-16T04:55:12.022Z,997.21
2023-04-16T04:56:13.096Z,997.18
2023-04-16T04:57:12.008Z,997.17
2023-04-16T04:58:12.050Z,997.18
2023-04-16T04:59:12.045Z,997.21
2023-04-16T05:00:11.990Z,997.21
2023-04-16T05:01:11.994Z,997.20
2023-04-16T05:02:11.981Z,997.21
2023-04-16T05:03:12.063Z,997.22
2023-04-16T05:04:12.093Z,997.23
2023-04-16T05:05:11.980Z,997.24
2023-04-16T05:06:11.938Z,997.25
2023-04-16T05:07:11.974Z,997.23
2023-04-16T05:08:11.927Z,997.26
2023-04-16T05:09:12.073Z,997.25
2023-04-16T05:10:11.945Z,997.26
2023-04-16T05:11:11.902Z,997.24
2023-04-16T05:12:11.916Z,997.22
2023-04-16T05:13:11.904Z,997.24
2023-04-16T05:14:11.879Z,997.25
2023-04-16T05:15:11.881Z,997.26
2023-04-16T05:16:12.209Z,997.28
2023-04-16T05:17:11.883Z,997.31
2023-04-16T05:18:11.884Z,997.29
2023-04-16T05:19:12.025Z,997.32
2023-04-16T05:20:11.839Z,997.33
2023-04-16T05:21:11.841Z,997.34
2023-04-16T05:22:11.895Z,997.36
2023-04-16T05:23:11.849Z,997.35
2023-04-16T05:24:13.062Z,997.35
2023-04-16T05:25:11.851Z,997.37
2023-04-16T05:26:11.808Z,997.37
2023-04-16T05:27:11.829Z,997.40
2023-04-16T05:28:22.495Z,997.39
2023-04-16T05:29:11.893Z,997.42
2023-04-16T05:30:11.786Z,997.47
2023-04-16T05:31:11.781Z,997.47
2023-04-16T05:32:11.761Z,997.51
2023-04-16T05:33:11.762Z,997.50
2023-04-16T05:34:11.798Z,997.51
2023-04-16T05:35:11.753Z,997.54
2023-04-16T05:36:11.720Z,997.50
2023-04-16T05:37:11.721Z,997.52
2023-04-16T05:38:11.731Z,997.55
2023-04-16T05:39:11.861Z,997.53
2023-04-16T05:40:11.733Z,997.54
2023-04-16T05:41:11.832Z,997.54
2023-04-16T05:42:11.687Z,997.54
2023-04-16T05:43:11.674Z,997.57
2023-04-16T05:44:11.674Z,997.55
2023-04-16T05:45:11.669Z,997.59
2023-04-16T05:46:11.750Z,997.60
2023-04-16T05:47:11.636Z,997.62
2023-04-16T05:48:11.654Z,997.64
2023-04-16T05:49:12.010Z,997.63
2023-04-16T05:50:11.650Z,997.67
2023-04-16T05:51:11.650Z,997.68
2023-04-16T05:52:11.646Z,997.70
2023-04-16T05:53:27.859Z,997.70
2023-04-16T05:54:11.592Z,997.73
2023-04-16T05:55:11.598Z,997.72
2023-04-16T05:56:11.640Z,997.74
2023-04-16T05:57:11.614Z,997.73
2023-04-16T05:58:11.662Z,997.75
2023-04-16T05:59:11.806Z,997.74
2023-04-16T06:00:11.545Z,997.78
2023-04-16T06:01:11.562Z,997.78
2023-04-16T06:02:11.597Z,997.78
2023-04-16T06:03:11.663Z,997.78
2023-04-16T06:04:11.643Z,997.77
2023-04-16T06:05:11.529Z,997.77
2023-04-16T06:06:11.509Z,997.76
2023-04-16T06:07:11.500Z,997.77
2023-04-16T06:08:11.525Z,997.77
2023-04-16T06:09:11.748Z,997.79
2023-04-16T06:10:11.534Z,997.79
2023-04-16T06:11:11.491Z,997.77
2023-04-16T06:12:11.483Z,997.79
2023-04-16T06:13:11.741Z,997.80
2023-04-16T06:14:11.780Z,997.80
2023-04-16T06:15:11.441Z,997.82
2023-04-16T06:16:11.898Z,997.82
2023-04-16T06:17:11.447Z,997.82
2023-04-16T06:18:11.452Z,997.83
2023-04-16T06:19:11.593Z,997.83
2023-04-16T06:20:11.409Z,997.85
2023-04-16T06:21:11.405Z,997.85
2023-04-16T06:22:12.427Z,997.86
2023-04-16T06:23:11.439Z,997.86
2023-04-16T06:24:12.045Z,997.87
2023-04-16T06:25:11.406Z,997.87
2023-04-16T06:26:11.453Z,997.87
2023-04-16T06:27:11.368Z,997.89
2023-04-16T06:28:11.416Z,997.92
2023-04-16T06:29:11.582Z,997.89
2023-04-16T06:30:11.393Z,997.90
2023-04-16T06:31:11.495Z,997.93
2023-04-16T06:32:11.926Z,997.95
2023-04-16T06:33:11.424Z,997.93
2023-04-16T06:34:11.374Z,997.98
2023-04-16T06:35:11.322Z,997.98
2023-04-16T06:36:11.354Z,998.00
2023-04-16T06:37:11.436Z,998.02
2023-04-16T06:38:11.390Z,998.02
2023-04-16T06:39:11.547Z,998.06
2023-04-16T06:40:11.369Z,998.05
2023-04-16T06:41:11.274Z,998.07
2023-04-16T06:42:11.275Z,998.09
2023-04-16T06:43:11.244Z,998.10
2023-04-16T06:44:12.529Z,998.12
2023-04-16T06:45:11.233Z,998.13
2023-04-16T06:46:11.293Z,998.12
2023-04-16T06:47:11.415Z,998.11
2023-04-16T06:48:11.267Z,998.12
2023-04-16T06:49:11.558Z,998.15
2023-04-16T06:50:11.244Z,998.14
2023-04-16T06:51:11.217Z,998.16
2023-04-16T06:52:11.310Z,998.15
2023-04-16T06:53:11.182Z,998.16
2023-04-16T06:54:11.290Z,998.14
2023-04-16T06:55:11.236Z,998.15
2023-04-16T06:56:11.167Z,998.16
2023-04-16T06:57:11.448Z,998.18
2023-04-16T06:58:11.475Z,998.17
2023-04-16T06:59:11.791Z,998.16
2023-04-16T07:00:11.663Z,998.17
2023-04-16T07:01:11.647Z,998.14
2023-04-16T07:02:11.636Z,998.20
2023-04-16T07:03:11.465Z,998.15
2023-04-16T07:04:11.839Z,998.18
2023-04-16T07:05:11.380Z,998.21
2023-04-16T07:06:11.374Z,998.20
2023-04-16T07:07:11.860Z,998.19
2023-04-16T07:08:11.601Z,998.23
2023-04-16T07:09:11.695Z,998.23
2023-04-16T07:10:11.473Z,998.22
2023-04-16T07:11:11.123Z,998.22
2023-04-16T07:12:11.191Z,998.23
2023-04-16T07:13:11.347Z,998.25
2023-04-16T07:14:11.004Z,998.22
2023-04-16T07:15:11.464Z,998.24
2023-04-16T07:16:12.239Z,998.23
2023-04-16T07:17:11.086Z,998.25
2023-04-16T07:18:11.209Z,998.25
2023-04-16T07:19:11.516Z,998.26
2023-04-16T07:20:11.676Z,998.25
2023-04-16T07:21:11.282Z,998.25
2023-04-16T07:22:11.886Z,998.24
2023-04-16T07:23:11.654Z,998.24
2023-04-16T07:24:11.564Z,998.27
2023-04-16T07:25:11.798Z,998.27
2023-04-16T07:26:11.655Z,998.26
2023-04-16T07:27:10.981Z,998.25
2023-04-16T07:28:12.163Z,998.25
2023-04-16T07:29:11.294Z,998.25
2023-04-16T07:30:11.704Z,998.27
2023-04-16T07:31:11.653Z,998.28
2023-04-16T07:32:11.992Z,998.27
2023-04-16T07:33:11.495Z,998.31
2023-04-16T07:34:12.222Z,998.31
2023-04-16T07:35:11.464Z,998.30
2023-04-16T07:36:11.278Z,998.30
2023-04-16T07:37:11.192Z,998.30
2023-04-16T07:38:11.571Z,998.30
2023-04-16T07:39:11.542Z,998.33
2023-04-16T07:40:31.677Z,998.33
2023-04-16T07:41:11.325Z,998.34
2023-04-16T07:42:11.697Z,998.37
2023-04-16T07:43:11.297Z,998.35
2023-04-16T07:44:11.326Z,998.40
2023-04-16T07:45:11.544Z,998.40
2023-04-16T07:46:11.917Z,998.38
2023-04-16T07:47:11.493Z,998.34
2023-04-16T07:48:11.657Z,998.37
2023-04-16T07:49:11.782Z,998.35
2023-04-16T07:50:11.569Z,998.38
2023-04-16T07:51:11.293Z,998.37
2023-04-16T07:52:11.766Z,998.36
2023-04-16T07:53:11.352Z,998.33
2023-04-16T07:54:11.212Z,998.36
2023-04-16T07:55:11.223Z,998.37
2023-04-16T07:56:11.095Z,998.34
2023-04-16T07:57:11.460Z,998.36
2023-04-16T07:58:11.983Z,998.35
2023-04-16T07:59:22.167Z,998.44
2023-04-16T08:00:12.294Z,998.42
2023-04-16T08:01:11.471Z,998.41
2023-04-16T08:02:11.379Z,998.44
2023-04-16T08:03:11.216Z,998.46
2023-04-16T08:04:14.177Z,998.49
2023-04-16T08:05:11.227Z,998.45
2023-04-16T08:06:11.273Z,998.50
2023-04-16T08:07:10.828Z,998.51
2023-04-16T08:08:11.051Z,998.46
2023-04-16T08:09:11.070Z,998.49
2023-04-16T08:10:11.412Z,998.51
2023-04-16T08:11:11.352Z,998.50
2023-04-16T08:12:11.284Z,998.51
2023-04-16T08:13:10.859Z,998.50
2023-04-16T08:14:11.150Z,998.54
2023-04-16T08:15:11.400Z,998.54
2023-04-16T08:16:11.909Z,998.55
2023-04-16T08:17:11.257Z,998.58
2023-04-16T08:18:11.059Z,998.57
2023-04-16T08:19:11.348Z,998.57
2023-04-16T08:20:14.404Z,998.57
2023-04-16T08:21:11.438Z,998.56
2023-04-16T08:22:12.382Z,998.58
2023-04-16T08:23:11.500Z,998.59
2023-04-16T08:24:11.465Z,998.57
2023-04-16T08:25:11.162Z,998.62
2023-04-16T08:26:11.376Z,998.61
2023-04-16T08:27:18.441Z,998.63
2023-04-16T08:28:12.884Z,998.63
2023-04-16T08:29:11.521Z,998.64
2023-04-16T08:30:11.010Z,998.64
2023-04-16T08:31:11.345Z,998.64
2023-04-16T08:32:11.259Z,998.66
2023-04-16T08:33:11.451Z,998.60
2023-04-16T08:34:11.776Z,998.65
2023-04-16T08:35:11.232Z,998.65
2023-04-16T08:36:11.085Z,998.66
2023-04-16T08:37:11.165Z,998.72
2023-04-16T08:38:11.244Z,998.70
2023-04-16T08:39:11.390Z,998.68
2023-04-16T08:40:11.219Z,998.69
2023-04-16T08:41:10.873Z,998.71
2023-04-16T08:42:18.180Z,998.72
2023-04-16T08:43:11.165Z,998.73
2023-04-16T08:44:11.222Z,998.72
2023-04-16T08:45:11.052Z,998.70
2023-04-16T08:46:11.502Z,998.71
2023-04-16T08:47:10.986Z,998.73
2023-04-16T08:48:11.056Z,998.73
2023-04-16T08:49:11.440Z,998.75
2023-04-16T08:50:11.312Z,998.72
2023-04-16T08:51:11.236Z,998.76
2023-04-16T08:52:11.723Z,998.79
2023-04-16T08:53:11.249Z,998.76
2023-04-16T08:54:11.216Z,998.80
2023-04-16T08:55:12.155Z,998.79
2023-04-16T08:56:10.892Z,998.82
2023-04-16T08:57:10.887Z,998.82
2023-04-16T08:58:11.373Z,998.84
2023-04-16T08:59:11.203Z,998.84
2023-04-16T09:00:10.853Z,998.87
2023-04-16T09:01:11.139Z,998.89
2023-04-16T09:02:11.198Z,998.92
2023-04-16T09:03:12.101Z,998.93
2023-04-16T09:04:11.833Z,998.95
2023-04-16T09:05:10.762Z,998.95
2023-04-16T09:06:10.673Z,998.94
2023-04-16T09:07:10.656Z,998.97
2023-04-16T09:08:10.753Z,998.94
2023-04-16T09:09:10.909Z,998.94
2023-04-16T09:10:11.010Z,998.94
2023-04-16T09:11:10.647Z,998.96
2023-04-16T09:12:11.089Z,998.91
2023-04-16T09:13:10.647Z,998.95
2023-04-16T09:14:10.897Z,998.95
2023-04-16T09:15:10.867Z,998.95
2023-04-16T09:16:11.235Z,998.95
2023-04-16T09:17:10.669Z,998.95
2023-04-16T09:18:10.906Z,998.99
2023-04-16T09:19:10.952Z,998.99
2023-04-16T09:20:10.909Z,998.98
2023-04-16T09:21:10.925Z,998.98
2023-04-16T09:22:11.318Z,999.00
2023-04-16T09:23:10.941Z,998.99
2023-04-16T09:24:10.909Z,999.00
2023-04-16T09:25:10.946Z,998.99
2023-04-16T09:26:10.753Z,998.96
2023-04-16T09:27:10.969Z,999.00
2023-04-16T09:28:11.512Z,999.01
2023-04-16T09:29:10.877Z,999.01
2023-04-16T09:30:10.801Z,999.03
2023-04-16T09:31:10.949Z,999.06
2023-04-16T09:32:10.920Z,999.07
2023-04-16T09:33:10.927Z,999.09
2023-04-16T09:34:11.284Z,999.10
2023-04-16T09:35:10.902Z,999.09
2023-04-16T09:36:10.924Z,999.12
2023-04-16T09:37:10.764Z,999.09
2023-04-16T09:38:11.882Z,999.14
2023-04-16T09:39:10.857Z,999.15
2023-04-16T09:40:12.185Z,999.16
2023-04-16T09:41:10.812Z,999.15
2023-04-16T09:42:10.728Z,999.16
2023-04-16T09:43:10.864Z,999.19
2023-04-16T09:44:10.782Z,999.21
2023-04-16T09:45:10.754Z,999.23
2023-04-16T09:46:13.295Z,999.25
2023-04-16T09:47:10.869Z,999.25
2023-04-16T09:48:10.632Z,999.24
2023-04-16T09:49:11.042Z,999.28
2023-04-16T09:50:12.447Z,999.27
2023-04-16T09:51:10.778Z,999.28
2023-04-16T09:52:11.261Z,999.29
2023-04-16T09:53:10.576Z,999.27
2023-04-16T09:54:10.745Z,999.33
2023-04-16T09:55:10.781Z,999.36
2023-04-16T09:56:10.746Z,999.33
2023-04-16T09:57:10.653Z,999.32
2023-04-16T09:58:11.092Z,999.35
2023-04-16T09:59:11.002Z,999.37
2023-04-16T10:00:10.703Z,999.39
2023-04-16T10:01:10.738Z,999.44
2023-04-16T10:02:15.758Z,999.43
2023-04-16T10:03:12.214Z,999.41
2023-04-16T10:04:10.740Z,999.45
2023-04-16T10:05:10.558Z,999.48
2023-04-16T10:06:10.730Z,999.55
2023-04-16T10:07:10.761Z,999.52
2023-04-16T10:08:10.705Z,999.54
2023-04-16T10:09:11.461Z,999.55
2023-04-16T10:10:10.576Z,999.57
2023-04-16T10:11:10.690Z,999.61
2023-04-16T10:12:10.660Z,999.62
2023-04-16T10:13:10.555Z,999.62
2023-04-16T10:14:10.515Z,999.64
2023-04-16T10:15:11.075Z,999.64
2023-04-16T10:16:10.584Z,999.65
2023-04-16T10:17:10.711Z,999.70
2023-04-16T10:18:10.675Z,999.67
2023-04-16T10:19:10.900Z,999.70
2023-04-16T10:20:10.568Z,999.71
2023-04-16T10:21:11.003Z,999.77
2023-04-16T10:22:10.604Z,999.73
2023-04-16T10:23:10.589Z,999.76
2023-04-16T10:24:10.407Z,999.77
2023-04-16T10:25:10.567Z,999.77
2023-04-16T10:26:10.596Z,999.80
2023-04-16T10:27:10.914Z,999.80
2023-04-16T10:28:10.514Z,999.83
2023-04-16T10:29:10.817Z,999.88
2023-04-16T10:30:14.684Z,999.81
2023-04-16T10:31:10.615Z,999.87
2023-04-16T10:32:10.506Z,999.87
2023-04-16T10:33:11.276Z,999.89
2023-04-16T10:34:10.493Z,999.90
2023-04-16T10:35:10.528Z,999.91
2023-04-16T10:36:10.342Z,999.96
2023-04-16T10:37:10.480Z,1000.04
2023-04-16T10:38:11.459Z,999.97
2023-04-16T10:39:11.160Z,999.97
2023-04-16T10:40:10.470Z,1000.03
2023-04-16T10:41:11.346Z,999.96
2023-04-16T10:42:10.307Z,999.96
2023-04-16T10:43:10.416Z,999.98
2023-04-16T10:44:10.434Z,999.95
2023-04-16T10:45:10.717Z,999.98
2023-04-16T10:46:10.440Z,999.99
2023-04-16T10:47:10.450Z,999.99
2023-04-16T10:48:10.445Z,999.98
2023-04-16T10:49:11.588Z,1000.07
2023-04-16T10:50:10.394Z,1000.02
2023-04-16T10:51:10.799Z,999.98
2023-04-16T10:52:10.285Z,999.96
2023-04-16T10:53:10.364Z,999.99
2023-04-16T10:54:10.342Z,1000.03
2023-04-16T10:55:10.393Z,1000.02
2023-04-16T10:56:10.224Z,1000.03
2023-04-16T10:57:10.860Z,999.97
2023-04-16T10:58:10.271Z,1000.03
2023-04-16T10:59:11.572Z,1000.08
2023-04-16T11:00:10.235Z,1000.03
2023-04-16T11:01:10.482Z,1000.06
2023-04-16T11:02:10.530Z,1000.04
2023-04-16T11:03:10.945Z,1000.04
2023-04-16T11:04:10.383Z,1000.07
2023-04-16T11:05:10.202Z,1000.06
2023-04-16T11:06:10.235Z,999.99
2023-04-16T11:07:10.272Z,1000.06
2023-04-16T11:08:10.163Z,1000.04
2023-04-16T11:09:10.975Z,1000.04
2023-04-16T11:10:10.106Z,1000.04
2023-04-16T11:11:10.118Z,1000.05
2023-04-16T11:12:09.956Z,1000.02
2023-04-16T11:13:10.148Z,1000.07
2023-04-16T11:14:10.272Z,1000.09
2023-04-16T11:15:10.932Z,1000.08
2023-04-16T11:16:10.046Z,1000.07
2023-04-16T11:17:10.092Z,1000.06
2023-04-16T11:18:10.150Z,1000.10
2023-04-16T11:19:10.369Z,1000.11
2023-04-16T11:20:17.425Z,1000.10
2023-04-16T11:21:11.703Z,1000.12
2023-04-16T11:22:10.078Z,1000.11
2023-04-16T11:23:09.981Z,1000.10
2023-04-16T11:24:10.123Z,1000.15
2023-04-16T11:25:11.069Z,1000.09
2023-04-16T11:26:10.155Z,1000.11
2023-04-16T11:27:12.601Z,1000.07
2023-04-16T11:28:10.013Z,1000.12
2023-04-16T11:29:11.216Z,1000.07
2023-04-16T11:30:10.112Z,1000.11
2023-04-16T11:31:11.088Z,1000.10
2023-04-16T11:32:10.028Z,1000.09
2023-04-16T11:33:11.564Z,1000.06
2023-04-16T11:34:10.048Z,1000.10
2023-04-16T11:35:10.017Z,1000.04
2023-04-16T11:36:10.021Z,1000.06
2023-04-16T11:37:10.016Z,1000.03
2023-04-16T11:38:09.897Z,1000.03
2023-04-16T11:39:10.719Z,1000.03
2023-04-16T11:40:10.033Z,1000.02
2023-04-16T11:41:10.033Z,1000.02
2023-04-16T11:42:10.031Z,1000.03
2023-04-16T11:43:09.928Z,999.98
2023-04-16T11:44:09.993Z,1000.00
2023-04-16T11:45:10.359Z,999.99
2023-04-16T11:46:24.061Z,999.98
2023-04-16T11:47:10.854Z,999.94
2023-04-16T11:48:11.168Z,999.98
2023-04-16T11:49:10.049Z,999.96
2023-04-16T11:50:09.906Z,999.96
2023-04-16T11:51:10.418Z,999.96
2023-04-16T11:52:09.865Z,999.91
2023-04-16T11:53:09.889Z,999.90
2023-04-16T11:54:11.817Z,999.93
2023-04-16T11:55:09.906Z,999.90
2023-04-16T11:56:09.902Z,1000.03
2023-04-16T11:57:12.381Z,999.98
2023-04-16T11:58:09.893Z,999.95
2023-04-16T11:59:10.224Z,999.94
2023-04-16T12:00:10.667Z,999.93
2023-04-16T12:01:09.632Z,999.96
2023-04-16T12:02:09.945Z,1000.02
2023-04-16T12:03:10.508Z,1000.01
2023-04-16T12:04:10.248Z,1000.01
2023-04-16T12:05:09.903Z,999.94
2023-04-16T12:06:09.834Z,999.99
2023-04-16T12:07:09.744Z,1000.03
2023-04-16T12:08:09.783Z,1000.01
2023-04-16T12:09:10.374Z,1000.06
2023-04-16T12:10:09.810Z,1000.13
2023-04-16T12:11:09.817Z,1000.09
2023-04-16T12:12:09.751Z,1000.10
2023-04-16T12:13:09.773Z,1000.01
2023-04-16T12:14:09.818Z,1000.05
2023-04-16T12:15:10.199Z,1000.03
2023-04-16T12:16:09.889Z,1000.03
2023-04-16T12:17:11.245Z,1000.06
2023-04-16T12:18:09.826Z,1000.03
2023-04-16T12:19:09.986Z,1000.01
2023-04-16T12:20:09.749Z,1000.00
2023-04-16T12:21:10.172Z,1000.02
2023-04-16T12:22:09.713Z,999.96
2023-04-16T12:23:09.615Z,1000.01
2023-04-16T12:24:09.576Z,999.97
2023-04-16T12:25:09.703Z,1000.09
2023-04-16T12:26:09.748Z,999.98